ANA923 RJTT-ZGGG
Flight info
| Callsign | ANA923 |
|---|---|
| Flight time | 4h 19m |
| Altitude | 38000 |
| Route | NINOX Y28 KCC V28 OLIVE Y28 ISAKY Y60 FUE A593 LAMEN/K0845F380 A593 AKARA/K0843S1160 A593 PUD A599 PLT W19 OLPAB OLPAB8 |
| Aircraft | A20N/M-SDE2E3FGHIRWXY/LB1 |
Departure
| Time | 2026-05-06 23:42 |
|---|---|
| Airport | Tokyo Haneda International Airport (RJTT) |
Arrival
| Time | 2026-05-07 04:02 |
|---|---|
| Airport | Guangzhou Baiyun International Airport (ZGGG) |
| Time | Latitude | Longitude | Altitude | Speed | Heading |
|---|---|---|---|---|---|
| 2026-05-06 23:31 | 35.55119 | 139.79202 | 27 ft | 0 kts | 60° |
| 2026-05-06 23:34 | 35.55113 | 139.79189 | 27 ft | 4 kts | 60° |
| 2026-05-06 23:35 | 35.55104 | 139.79170 | 27 ft | 4 kts | 60° |
| 2026-05-06 23:35 | 35.55093 | 139.79147 | 28 ft | 4 kts | 75° |
| 2026-05-06 23:35 | 35.55099 | 139.79111 | 27 ft | 4 kts | 137° |
| 2026-05-06 23:35 | 35.55115 | 139.79096 | 27 ft | 0 kts | 150° |
| 2026-05-06 23:38 | 35.55102 | 139.79105 | 27 ft | 6 kts | 149° |
| 2026-05-06 23:38 | 35.55042 | 139.79149 | 28 ft | 12 kts | 148° |
| 2026-05-06 23:38 | 35.55047 | 139.79247 | 27 ft | 16 kts | 60° |
| 2026-05-06 23:38 | 35.55117 | 139.79400 | 29 ft | 22 kts | 72° |
| 2026-05-06 23:39 | 35.55074 | 139.79475 | 27 ft | 11 kts | 144° |
| 2026-05-06 23:39 | 35.54983 | 139.79541 | 28 ft | 20 kts | 149° |
| 2026-05-06 23:39 | 35.54839 | 139.79641 | 29 ft | 27 kts | 149° |
| 2026-05-06 23:39 | 35.54655 | 139.79773 | 24 ft | 33 kts | 150° |
| 2026-05-06 23:40 | 35.54581 | 139.79868 | 25 ft | 11 kts | 92° |
| 2026-05-06 23:40 | 35.54613 | 139.79951 | 25 ft | 11 kts | 64° |
| 2026-05-06 23:40 | 35.54648 | 139.80011 | 28 ft | 6 kts | 33° |
| 2026-05-06 23:40 | 35.54675 | 139.80008 | 28 ft | 0 kts | 332° |
| 2026-05-06 23:41 | 35.54679 | 139.80005 | 28 ft | 6 kts | 332° |
| 2026-05-06 23:41 | 35.54976 | 139.79801 | 29 ft | 91 kts | 329° |
| 2026-05-06 23:42 | 35.55738 | 139.79262 | 27 ft | 158 kts | 330° |
| 2026-05-06 23:42 | 35.56813 | 139.78503 | 380 ft | 186 kts | 330° |
| 2026-05-06 23:42 | 35.57964 | 139.77655 | 1004 ft | 197 kts | 330° |
| 2026-05-06 23:42 | 35.59356 | 139.77247 | 1636 ft | 221 kts | 5° |
| 2026-05-06 23:43 | 35.60855 | 139.77911 | 2309 ft | 241 kts | 37° |
| 2026-05-06 23:43 | 35.61970 | 139.79546 | 2829 ft | 263 kts | 67° |
| 2026-05-06 23:43 | 35.62313 | 139.81772 | 3513 ft | 271 kts | 97° |
| 2026-05-06 23:43 | 35.61746 | 139.83963 | 4355 ft | 272 kts | 126° |
| 2026-05-06 23:44 | 35.60428 | 139.85594 | 5205 ft | 270 kts | 150° |
| 2026-05-06 23:44 | 35.58798 | 139.86762 | 6124 ft | 273 kts | 154° |
| 2026-05-06 23:44 | 35.57242 | 139.88138 | 6988 ft | 281 kts | 140° |
| 2026-05-06 23:44 | 35.55983 | 139.89976 | 7814 ft | 290 kts | 127° |
| 2026-05-06 23:45 | 35.54933 | 139.92124 | 8629 ft | 294 kts | 129° |
| 2026-05-06 23:45 | 35.53490 | 139.93869 | 9430 ft | 292 kts | 152° |
| 2026-05-06 23:45 | 35.51613 | 139.94727 | 10189 ft | 288 kts | 178° |
| 2026-05-06 23:45 | 35.49576 | 139.94597 | 10554 ft | 303 kts | 195° |
| 2026-05-06 23:46 | 35.47581 | 139.93604 | 10804 ft | 319 kts | 216° |
| 2026-05-06 23:46 | 35.45977 | 139.91713 | 11411 ft | 322 kts | 236° |
| 2026-05-06 23:46 | 35.44990 | 139.89259 | 12214 ft | 324 kts | 254° |
| 2026-05-06 23:46 | 35.44563 | 139.86520 | 12960 ft | 329 kts | 260° |
| 2026-05-06 23:47 | 35.44196 | 139.83738 | 13714 ft | 333 kts | 260° |
| 2026-05-06 23:47 | 35.43823 | 139.80916 | 14409 ft | 335 kts | 259° |
| 2026-05-06 23:47 | 35.43444 | 139.78085 | 15104 ft | 338 kts | 259° |
| 2026-05-06 23:47 | 35.43090 | 139.75230 | 15778 ft | 341 kts | 263° |
| 2026-05-06 23:48 | 35.43069 | 139.72302 | 16428 ft | 346 kts | 272° |
| 2026-05-06 23:48 | 35.43474 | 139.69368 | 17064 ft | 353 kts | 281° |
| 2026-05-06 23:48 | 35.44219 | 139.66477 | 17694 ft | 357 kts | 284° |
| 2026-05-06 23:48 | 35.44990 | 139.63566 | 18294 ft | 361 kts | 284° |
| 2026-05-06 23:49 | 35.45759 | 139.60627 | 18786 ft | 365 kts | 284° |
| 2026-05-06 23:49 | 35.46534 | 139.57642 | 19302 ft | 369 kts | 284° |
| 2026-05-06 23:49 | 35.47316 | 139.54623 | 19783 ft | 373 kts | 284° |
| 2026-05-06 23:49 | 35.48054 | 139.51565 | 20253 ft | 375 kts | 280° |
| 2026-05-06 23:50 | 35.48511 | 139.48410 | 20720 ft | 377 kts | 274° |
| 2026-05-06 23:50 | 35.48800 | 139.41975 | 21650 ft | 384 kts | 270° |
| 2026-05-06 23:50 | 35.48933 | 139.38682 | 22118 ft | 388 kts | 271° |
| 2026-05-06 23:51 | 35.49070 | 139.35358 | 22579 ft | 392 kts | 271° |
| 2026-05-06 23:51 | 35.49207 | 139.32004 | 23050 ft | 396 kts | 271° |
| 2026-05-06 23:51 | 35.49344 | 139.28609 | 23524 ft | 399 kts | 271° |
| 2026-05-06 23:51 | 35.49480 | 139.25192 | 23914 ft | 403 kts | 271° |
| 2026-05-06 23:52 | 35.49616 | 139.21751 | 24339 ft | 405 kts | 271° |
| 2026-05-06 23:52 | 35.49752 | 139.18295 | 24766 ft | 406 kts | 271° |
| 2026-05-06 23:52 | 35.49754 | 139.14825 | 25158 ft | 408 kts | 265° |
| 2026-05-06 23:52 | 35.49574 | 139.11347 | 25575 ft | 410 kts | 265° |
| 2026-05-06 23:53 | 35.49399 | 139.07834 | 25957 ft | 412 kts | 265° |
| 2026-05-06 23:53 | 35.49228 | 139.04308 | 26356 ft | 415 kts | 265° |
| 2026-05-06 23:53 | 35.49056 | 139.00762 | 26735 ft | 417 kts | 266° |
| 2026-05-06 23:53 | 35.48885 | 138.97247 | 27115 ft | 419 kts | 266° |
| 2026-05-06 23:54 | 35.48709 | 138.93661 | 27457 ft | 422 kts | 266° |
| 2026-05-06 23:54 | 35.48529 | 138.90049 | 27843 ft | 424 kts | 266° |
| 2026-05-06 23:54 | 35.48349 | 138.86431 | 28217 ft | 427 kts | 266° |
| 2026-05-06 23:54 | 35.48166 | 138.82791 | 28623 ft | 428 kts | 266° |
| 2026-05-06 23:55 | 35.47981 | 138.79131 | 28962 ft | 431 kts | 266° |
| 2026-05-06 23:55 | 35.47793 | 138.75448 | 29302 ft | 433 kts | 266° |
| 2026-05-06 23:55 | 35.47604 | 138.71756 | 29639 ft | 435 kts | 266° |
| 2026-05-06 23:55 | 35.47413 | 138.68043 | 29949 ft | 437 kts | 266° |
| 2026-05-06 23:56 | 35.47219 | 138.64307 | 30261 ft | 440 kts | 266° |
| 2026-05-06 23:56 | 35.47022 | 138.60559 | 30551 ft | 441 kts | 266° |
| 2026-05-06 23:56 | 35.46824 | 138.56795 | 30844 ft | 443 kts | 266° |
| 2026-05-06 23:56 | 35.46623 | 138.53015 | 31129 ft | 445 kts | 266° |
| 2026-05-06 23:57 | 35.46421 | 138.49222 | 31480 ft | 445 kts | 266° |
| 2026-05-06 23:57 | 35.46218 | 138.45436 | 31873 ft | 444 kts | 266° |
| 2026-05-06 23:57 | 35.46015 | 138.41664 | 32260 ft | 443 kts | 266° |
| 2026-05-06 23:57 | 35.45810 | 138.37899 | 32616 ft | 441 kts | 266° |
| 2026-05-06 23:58 | 35.45603 | 138.34149 | 32988 ft | 440 kts | 266° |
| 2026-05-06 23:58 | 35.45398 | 138.30408 | 33347 ft | 439 kts | 266° |
| 2026-05-06 23:58 | 35.45193 | 138.26684 | 33731 ft | 437 kts | 266° |
| 2026-05-06 23:58 | 35.44987 | 138.22957 | 34055 ft | 437 kts | 266° |
| 2026-05-06 23:59 | 35.44781 | 138.19255 | 34368 ft | 434 kts | 266° |
| 2026-05-06 23:59 | 35.44577 | 138.15618 | 34684 ft | 432 kts | 266° |
| 2026-05-06 23:59 | 35.44370 | 138.11954 | 35032 ft | 429 kts | 266° |
| 2026-05-06 23:59 | 35.44164 | 138.08308 | 35258 ft | 429 kts | 265° |
| 2026-05-07 00:00 | 35.43956 | 138.04654 | 35480 ft | 429 kts | 265° |
| 2026-05-07 00:00 | 35.43747 | 138.01009 | 35749 ft | 428 kts | 265° |
| 2026-05-07 00:00 | 35.43537 | 137.97372 | 36001 ft | 427 kts | 265° |
| 2026-05-07 00:00 | 35.43327 | 137.93749 | 36225 ft | 426 kts | 265° |
| 2026-05-07 00:01 | 35.43116 | 137.90124 | 36478 ft | 425 kts | 265° |
| 2026-05-07 00:01 | 35.42905 | 137.86515 | 36702 ft | 425 kts | 265° |
| 2026-05-07 00:01 | 35.42693 | 137.82906 | 36919 ft | 424 kts | 265° |
| 2026-05-07 00:01 | 35.42481 | 137.79309 | 37116 ft | 423 kts | 265° |
| 2026-05-07 00:02 | 35.42256 | 137.75708 | 37273 ft | 423 kts | 264° |
| 2026-05-07 00:02 | 35.41991 | 137.72120 | 37480 ft | 422 kts | 263° |
| 2026-05-07 00:02 | 35.41714 | 137.68543 | 37645 ft | 422 kts | 263° |
| 2026-05-07 00:02 | 35.41436 | 137.64964 | 37789 ft | 422 kts | 263° |
| 2026-05-07 00:03 | 35.41161 | 137.61385 | 37945 ft | 421 kts | 263° |
| 2026-05-07 00:03 | 35.40853 | 137.57819 | 38066 ft | 420 kts | 261° |
| 2026-05-07 00:03 | 35.39600 | 137.50854 | 38078 ft | 418 kts | 254° |
| 2026-05-07 00:04 | 35.38101 | 137.44013 | 38075 ft | 418 kts | 255° |
| 2026-05-07 00:04 | 35.36602 | 137.37130 | 38071 ft | 418 kts | 254° |
| 2026-05-07 00:05 | 35.35094 | 137.30233 | 38070 ft | 419 kts | 254° |
| 2026-05-07 00:05 | 35.33583 | 137.23351 | 38063 ft | 418 kts | 254° |
| 2026-05-07 00:06 | 35.32069 | 137.16477 | 38064 ft | 418 kts | 254° |
| 2026-05-07 00:06 | 35.30548 | 137.09592 | 38056 ft | 418 kts | 254° |
| 2026-05-07 00:07 | 35.29028 | 137.02729 | 38051 ft | 418 kts | 254° |
| 2026-05-07 00:07 | 35.27500 | 136.95860 | 38051 ft | 418 kts | 254° |
| 2026-05-07 00:08 | 35.25981 | 136.89051 | 38047 ft | 418 kts | 254° |
| 2026-05-07 00:08 | 35.24429 | 136.82192 | 38047 ft | 418 kts | 254° |
| 2026-05-07 00:09 | 35.22875 | 136.75349 | 38048 ft | 418 kts | 254° |
| 2026-05-07 00:09 | 35.21318 | 136.68502 | 38047 ft | 418 kts | 254° |
| 2026-05-07 00:10 | 35.19758 | 136.61658 | 38052 ft | 418 kts | 254° |
| 2026-05-07 00:10 | 35.18190 | 136.54801 | 38051 ft | 418 kts | 254° |
| 2026-05-07 00:11 | 35.16618 | 136.47946 | 38049 ft | 419 kts | 254° |
| 2026-05-07 00:11 | 35.15087 | 136.41138 | 38050 ft | 418 kts | 254° |
| 2026-05-07 00:12 | 35.13551 | 136.34275 | 38055 ft | 419 kts | 254° |
| 2026-05-07 00:12 | 35.12008 | 136.27413 | 38052 ft | 419 kts | 254° |
| 2026-05-07 00:13 | 35.10450 | 136.20540 | 38060 ft | 420 kts | 254° |
| 2026-05-07 00:13 | 35.08880 | 136.13663 | 38063 ft | 421 kts | 254° |
| 2026-05-07 00:14 | 35.07305 | 136.06783 | 38065 ft | 421 kts | 254° |
| 2026-05-07 00:14 | 35.05727 | 135.99903 | 38055 ft | 421 kts | 254° |
| 2026-05-07 00:15 | 35.04133 | 135.93034 | 38048 ft | 419 kts | 254° |
| 2026-05-07 00:15 | 35.02500 | 135.86203 | 38050 ft | 419 kts | 251° |
| 2026-05-07 00:16 | 35.00188 | 135.79676 | 38048 ft | 420 kts | 242° |
| 2026-05-07 00:16 | 34.97188 | 135.73560 | 38048 ft | 421 kts | 239° |
| 2026-05-07 00:17 | 34.94163 | 135.67507 | 38047 ft | 421 kts | 239° |
| 2026-05-07 00:17 | 34.91112 | 135.61405 | 38048 ft | 422 kts | 239° |
| 2026-05-07 00:18 | 34.88054 | 135.55301 | 38050 ft | 422 kts | 239° |
| 2026-05-07 00:18 | 34.84987 | 135.49196 | 38052 ft | 422 kts | 239° |
| 2026-05-07 00:19 | 34.82078 | 135.42989 | 38052 ft | 422 kts | 245° |
| 2026-05-07 00:19 | 34.79989 | 135.36313 | 38052 ft | 422 kts | 254° |
| 2026-05-07 00:20 | 34.78726 | 135.29352 | 38052 ft | 422 kts | 258° |
| 2026-05-07 00:20 | 34.77580 | 135.22349 | 38047 ft | 421 kts | 258° |
| 2026-05-07 00:21 | 34.76425 | 135.15387 | 38047 ft | 420 kts | 258° |
| 2026-05-07 00:21 | 34.75657 | 135.08345 | 38043 ft | 421 kts | 266° |
| 2026-05-07 00:22 | 34.75632 | 135.01221 | 38044 ft | 421 kts | 269° |
| 2026-05-07 00:22 | 34.75631 | 134.94093 | 38044 ft | 421 kts | 269° |
| 2026-05-07 00:23 | 34.75622 | 134.86986 | 38048 ft | 421 kts | 269° |
| 2026-05-07 00:23 | 34.75609 | 134.79873 | 38055 ft | 420 kts | 269° |
| 2026-05-07 00:24 | 34.75594 | 134.72765 | 38053 ft | 420 kts | 269° |
| 2026-05-07 00:24 | 34.75574 | 134.65671 | 38056 ft | 419 kts | 269° |
| 2026-05-07 00:25 | 34.75550 | 134.58629 | 38055 ft | 419 kts | 269° |
| 2026-05-07 00:25 | 34.75526 | 134.52691 | 38054 ft | 419 kts | 269° |
| 2026-05-07 00:26 | 34.75222 | 134.44495 | 38056 ft | 418 kts | 262° |
| 2026-05-07 00:26 | 34.74294 | 134.38728 | 38054 ft | 417 kts | 256° |
| 2026-05-07 00:27 | 34.72970 | 134.31856 | 38053 ft | 417 kts | 257° |
| 2026-05-07 00:27 | 34.71658 | 134.24989 | 38049 ft | 417 kts | 257° |
| 2026-05-07 00:28 | 34.70338 | 134.18122 | 38052 ft | 417 kts | 257° |
| 2026-05-07 00:28 | 34.69016 | 134.11244 | 38052 ft | 418 kts | 257° |
| 2026-05-07 00:29 | 34.67690 | 134.04368 | 38048 ft | 418 kts | 257° |
| 2026-05-07 00:30 | 34.63897 | 133.90999 | 38053 ft | 419 kts | 250° |
| 2026-05-07 00:30 | 34.61857 | 133.84380 | 38055 ft | 419 kts | 250° |
| 2026-05-07 00:31 | 34.59808 | 133.77749 | 38062 ft | 419 kts | 250° |
| 2026-05-07 00:31 | 34.57755 | 133.71128 | 38065 ft | 419 kts | 250° |
| 2026-05-07 00:32 | 34.55713 | 133.64555 | 38069 ft | 419 kts | 250° |
| 2026-05-07 00:32 | 34.53631 | 133.57952 | 38068 ft | 419 kts | 249° |
| 2026-05-07 00:33 | 34.51461 | 133.51396 | 38070 ft | 419 kts | 249° |
| 2026-05-07 00:33 | 34.49294 | 133.44854 | 38066 ft | 417 kts | 249° |
| 2026-05-07 00:34 | 34.47137 | 133.38324 | 38064 ft | 417 kts | 249° |
| 2026-05-07 00:34 | 34.45058 | 133.31761 | 38058 ft | 417 kts | 250° |
| 2026-05-07 00:35 | 34.43019 | 133.25173 | 38056 ft | 417 kts | 250° |
| 2026-05-07 00:35 | 34.40967 | 133.18606 | 38053 ft | 417 kts | 250° |
| 2026-05-07 00:36 | 34.38892 | 133.12050 | 38048 ft | 417 kts | 250° |
| 2026-05-07 00:36 | 34.36817 | 133.05552 | 38052 ft | 416 kts | 249° |
| 2026-05-07 00:37 | 34.34728 | 132.99014 | 38047 ft | 416 kts | 249° |
| 2026-05-07 00:37 | 34.32638 | 132.92483 | 38052 ft | 416 kts | 249° |
| 2026-05-07 00:38 | 34.30549 | 132.85953 | 38054 ft | 416 kts | 250° |
| 2026-05-07 00:38 | 34.28494 | 132.79424 | 38051 ft | 415 kts | 250° |
| 2026-05-07 00:39 | 34.26440 | 132.72906 | 38056 ft | 415 kts | 250° |
| 2026-05-07 00:39 | 34.24378 | 132.66389 | 38057 ft | 414 kts | 250° |
| 2026-05-07 00:40 | 34.22316 | 132.59895 | 38063 ft | 413 kts | 250° |
| 2026-05-07 00:40 | 34.20267 | 132.53448 | 38062 ft | 414 kts | 250° |
| 2026-05-07 00:41 | 34.18214 | 132.46962 | 38058 ft | 413 kts | 250° |
| 2026-05-07 00:41 | 34.16158 | 132.40476 | 38056 ft | 413 kts | 250° |
| 2026-05-07 00:42 | 34.14098 | 132.33997 | 38071 ft | 413 kts | 249° |
| 2026-05-07 00:42 | 34.12039 | 132.27535 | 38077 ft | 412 kts | 249° |
| 2026-05-07 00:43 | 34.09978 | 132.21084 | 38061 ft | 411 kts | 249° |
| 2026-05-07 00:43 | 34.07961 | 132.14632 | 38058 ft | 411 kts | 252° |
| 2026-05-07 00:44 | 34.06456 | 132.08028 | 38052 ft | 410 kts | 255° |
| 2026-05-07 00:44 | 34.04985 | 132.01388 | 38053 ft | 410 kts | 255° |
| 2026-05-07 00:45 | 34.03504 | 131.94746 | 38067 ft | 410 kts | 255° |
| 2026-05-07 00:45 | 34.02021 | 131.88113 | 38058 ft | 409 kts | 255° |
| 2026-05-07 00:46 | 34.00537 | 131.81492 | 38044 ft | 409 kts | 255° |
| 2026-05-07 00:46 | 33.99050 | 131.74872 | 38039 ft | 409 kts | 255° |
| 2026-05-07 00:47 | 33.97561 | 131.68267 | 38057 ft | 408 kts | 255° |
| 2026-05-07 00:47 | 33.96071 | 131.61670 | 38047 ft | 408 kts | 254° |
| 2026-05-07 00:48 | 33.94584 | 131.55104 | 38037 ft | 407 kts | 254° |
| 2026-05-07 00:48 | 33.93089 | 131.48523 | 38033 ft | 407 kts | 254° |
| 2026-05-07 00:49 | 33.91602 | 131.41992 | 38034 ft | 407 kts | 254° |
| 2026-05-07 00:49 | 33.90103 | 131.35429 | 38038 ft | 406 kts | 254° |
| 2026-05-07 00:50 | 33.88601 | 131.28867 | 38050 ft | 406 kts | 254° |
| 2026-05-07 00:50 | 33.87097 | 131.22315 | 38054 ft | 406 kts | 254° |
| 2026-05-07 00:51 | 33.85588 | 131.15758 | 38060 ft | 406 kts | 254° |
| 2026-05-07 00:51 | 33.84076 | 131.09205 | 38058 ft | 406 kts | 254° |
| 2026-05-07 00:52 | 33.82561 | 131.02653 | 38056 ft | 406 kts | 254° |
| 2026-05-07 00:52 | 33.81046 | 130.96122 | 38049 ft | 405 kts | 254° |
| 2026-05-07 00:53 | 33.79530 | 130.89600 | 38041 ft | 405 kts | 254° |
| 2026-05-07 00:53 | 33.78020 | 130.83125 | 38043 ft | 405 kts | 254° |
| 2026-05-07 00:54 | 33.76499 | 130.76611 | 38044 ft | 405 kts | 253° |
| 2026-05-07 00:54 | 33.74973 | 130.70106 | 38024 ft | 404 kts | 253° |
| 2026-05-07 00:55 | 33.73446 | 130.63606 | 38025 ft | 404 kts | 253° |
| 2026-05-07 00:55 | 33.71915 | 130.57110 | 38020 ft | 403 kts | 253° |
| 2026-05-07 00:56 | 33.70384 | 130.50628 | 38016 ft | 404 kts | 253° |
| 2026-05-07 00:56 | 33.68800 | 130.44150 | 38024 ft | 404 kts | 250° |
| 2026-05-07 00:57 | 33.66530 | 130.37994 | 38017 ft | 404 kts | 242° |
| 2026-05-07 00:57 | 33.63440 | 130.32345 | 38016 ft | 406 kts | 234° |
| 2026-05-07 00:58 | 33.60004 | 130.26945 | 38019 ft | 407 kts | 234° |
| 2026-05-07 00:58 | 33.56595 | 130.21560 | 38024 ft | 408 kts | 234° |
| 2026-05-07 00:59 | 33.51447 | 130.13453 | 38019 ft | 407 kts | 234° |
| 2026-05-07 01:00 | 33.48008 | 130.08050 | 38015 ft | 408 kts | 234° |
| 2026-05-07 01:00 | 33.44563 | 130.02647 | 38022 ft | 408 kts | 234° |
| 2026-05-07 01:01 | 33.41115 | 129.97247 | 38026 ft | 409 kts | 234° |
| 2026-05-07 01:01 | 33.37652 | 129.91831 | 38028 ft | 410 kts | 234° |
| 2026-05-07 01:02 | 33.34174 | 129.86400 | 38024 ft | 411 kts | 234° |
| 2026-05-07 01:02 | 33.30702 | 129.80985 | 38013 ft | 410 kts | 234° |
| 2026-05-07 01:03 | 33.27224 | 129.75570 | 38027 ft | 411 kts | 234° |
| 2026-05-07 01:03 | 33.23746 | 129.70163 | 38021 ft | 410 kts | 234° |
| 2026-05-07 01:04 | 33.20286 | 129.64792 | 38017 ft | 411 kts | 234° |
| 2026-05-07 01:04 | 33.16798 | 129.59377 | 38024 ft | 411 kts | 234° |
| 2026-05-07 01:05 | 33.13309 | 129.53966 | 38016 ft | 411 kts | 234° |
| 2026-05-07 01:05 | 33.09821 | 129.48563 | 38017 ft | 411 kts | 234° |
| 2026-05-07 01:06 | 33.06329 | 129.43165 | 38014 ft | 411 kts | 234° |
| 2026-05-07 01:06 | 33.02855 | 129.37800 | 38015 ft | 411 kts | 234° |
| 2026-05-07 01:07 | 32.99361 | 129.32414 | 38024 ft | 411 kts | 234° |
| 2026-05-07 01:07 | 32.95863 | 129.27029 | 38025 ft | 411 kts | 234° |
| 2026-05-07 01:08 | 32.92360 | 129.21645 | 38023 ft | 411 kts | 234° |
| 2026-05-07 01:08 | 32.88854 | 129.16264 | 38030 ft | 411 kts | 234° |
| 2026-05-07 01:09 | 32.85346 | 129.10888 | 38028 ft | 411 kts | 234° |
| 2026-05-07 01:09 | 32.81836 | 129.05515 | 38029 ft | 411 kts | 234° |
| 2026-05-07 01:10 | 32.78322 | 129.00144 | 38028 ft | 411 kts | 234° |
| 2026-05-07 01:10 | 32.74806 | 128.94779 | 38030 ft | 411 kts | 234° |
| 2026-05-07 01:11 | 32.71317 | 128.89463 | 38026 ft | 411 kts | 234° |
| 2026-05-07 01:11 | 32.68118 | 128.83866 | 38021 ft | 408 kts | 243° |
| 2026-05-07 01:12 | 32.65875 | 128.77695 | 38024 ft | 407 kts | 253° |
| 2026-05-07 01:12 | 32.64455 | 128.71202 | 38026 ft | 406 kts | 256° |
| 2026-05-07 01:13 | 32.63096 | 128.64694 | 38026 ft | 406 kts | 256° |
| 2026-05-07 01:13 | 32.61726 | 128.58184 | 38023 ft | 406 kts | 256° |
| 2026-05-07 01:14 | 32.60353 | 128.51683 | 38023 ft | 406 kts | 256° |
| 2026-05-07 01:14 | 32.58987 | 128.45227 | 38023 ft | 405 kts | 256° |
| 2026-05-07 01:15 | 32.57613 | 128.38748 | 38022 ft | 405 kts | 256° |
| 2026-05-07 01:15 | 32.56468 | 128.33364 | 38019 ft | 405 kts | 256° |
| 2026-05-07 01:16 | 32.55091 | 128.26906 | 38013 ft | 404 kts | 256° |
| 2026-05-07 01:16 | 32.53709 | 128.20442 | 38012 ft | 404 kts | 256° |
| 2026-05-07 01:17 | 32.52327 | 128.13996 | 38015 ft | 403 kts | 256° |
| 2026-05-07 01:17 | 32.50942 | 128.07552 | 38009 ft | 403 kts | 256° |
| 2026-05-07 01:18 | 32.49554 | 128.01112 | 38005 ft | 403 kts | 256° |
| 2026-05-07 01:18 | 32.48164 | 127.94678 | 38011 ft | 403 kts | 256° |
| 2026-05-07 01:19 | 32.46779 | 127.88287 | 38010 ft | 403 kts | 256° |
| 2026-05-07 01:19 | 32.45375 | 127.81818 | 38004 ft | 403 kts | 256° |
| 2026-05-07 01:20 | 32.43983 | 127.75430 | 38010 ft | 403 kts | 256° |
| 2026-05-07 01:20 | 32.42579 | 127.69000 | 38014 ft | 403 kts | 256° |
| 2026-05-07 01:21 | 32.41171 | 127.62575 | 38015 ft | 404 kts | 256° |
| 2026-05-07 01:21 | 32.39759 | 127.56147 | 38016 ft | 404 kts | 256° |
| 2026-05-07 01:22 | 32.38323 | 127.49718 | 38016 ft | 404 kts | 256° |
| 2026-05-07 01:22 | 32.36881 | 127.43287 | 38016 ft | 404 kts | 256° |
| 2026-05-07 01:23 | 32.35437 | 127.36856 | 38020 ft | 404 kts | 256° |
| 2026-05-07 01:23 | 32.33991 | 127.30425 | 38023 ft | 405 kts | 256° |
| 2026-05-07 01:24 | 32.32540 | 127.23994 | 38020 ft | 405 kts | 256° |
| 2026-05-07 01:24 | 32.31095 | 127.17601 | 38026 ft | 405 kts | 256° |
| 2026-05-07 01:25 | 32.29638 | 127.11171 | 38020 ft | 405 kts | 255° |
| 2026-05-07 01:25 | 32.28176 | 127.04740 | 38026 ft | 405 kts | 255° |
| 2026-05-07 01:26 | 32.26744 | 126.98309 | 38031 ft | 404 kts | 256° |
| 2026-05-07 01:26 | 32.25339 | 126.91870 | 38030 ft | 404 kts | 256° |
| 2026-05-07 01:27 | 32.23926 | 126.85442 | 38027 ft | 404 kts | 256° |
| 2026-05-07 01:27 | 32.22517 | 126.79063 | 38028 ft | 403 kts | 256° |
| 2026-05-07 01:28 | 32.21097 | 126.72655 | 38024 ft | 403 kts | 256° |
| 2026-05-07 01:28 | 32.19673 | 126.66243 | 38023 ft | 403 kts | 256° |
| 2026-05-07 01:29 | 32.18275 | 126.59841 | 38022 ft | 402 kts | 256° |
| 2026-05-07 01:29 | 32.16909 | 126.53481 | 38017 ft | 402 kts | 256° |
| 2026-05-07 01:30 | 32.15529 | 126.47093 | 38013 ft | 401 kts | 256° |
| 2026-05-07 01:30 | 32.14143 | 126.40708 | 38012 ft | 401 kts | 256° |
| 2026-05-07 01:31 | 32.12756 | 126.34337 | 38011 ft | 401 kts | 256° |
| 2026-05-07 01:31 | 32.11374 | 126.28009 | 38012 ft | 400 kts | 256° |
| 2026-05-07 01:32 | 32.09982 | 126.21647 | 38014 ft | 400 kts | 256° |
| 2026-05-07 01:32 | 32.08586 | 126.15288 | 38014 ft | 400 kts | 256° |
| 2026-05-07 01:33 | 32.07188 | 126.08933 | 38012 ft | 400 kts | 256° |
| 2026-05-07 01:33 | 32.05795 | 126.02577 | 38016 ft | 400 kts | 256° |
| 2026-05-07 01:34 | 32.04436 | 125.96210 | 38017 ft | 400 kts | 257° |
| 2026-05-07 01:34 | 32.03072 | 125.89844 | 38019 ft | 400 kts | 256° |
| 2026-05-07 01:35 | 32.01701 | 125.83482 | 38018 ft | 400 kts | 256° |
| 2026-05-07 01:35 | 32.00335 | 125.77167 | 38020 ft | 400 kts | 256° |
| 2026-05-07 01:36 | 31.98930 | 125.70817 | 38019 ft | 400 kts | 256° |
| 2026-05-07 01:36 | 31.97517 | 125.64474 | 38018 ft | 400 kts | 256° |
| 2026-05-07 01:37 | 31.96105 | 125.58135 | 38015 ft | 400 kts | 256° |
| 2026-05-07 01:37 | 31.94689 | 125.51788 | 38015 ft | 400 kts | 256° |
| 2026-05-07 01:38 | 31.93274 | 125.45463 | 38017 ft | 400 kts | 256° |
| 2026-05-07 01:38 | 31.91855 | 125.39137 | 38014 ft | 399 kts | 256° |
| 2026-05-07 01:39 | 31.90434 | 125.32816 | 38014 ft | 399 kts | 256° |
| 2026-05-07 01:39 | 31.89021 | 125.26546 | 38008 ft | 399 kts | 256° |
| 2026-05-07 01:40 | 31.87595 | 125.20237 | 38006 ft | 399 kts | 256° |
| 2026-05-07 01:40 | 31.86167 | 125.13931 | 38009 ft | 398 kts | 256° |
| 2026-05-07 01:41 | 31.84736 | 125.07632 | 38007 ft | 398 kts | 256° |
| 2026-05-07 01:41 | 31.83304 | 125.01339 | 38008 ft | 398 kts | 256° |
| 2026-05-07 01:42 | 31.81908 | 124.95050 | 38003 ft | 397 kts | 257° |
| 2026-05-07 01:42 | 31.80565 | 124.88772 | 38003 ft | 397 kts | 257° |
| 2026-05-07 01:43 | 31.79207 | 124.82478 | 38003 ft | 397 kts | 257° |
| 2026-05-07 01:43 | 31.77843 | 124.76198 | 38004 ft | 397 kts | 257° |
| 2026-05-07 01:44 | 31.76481 | 124.69951 | 38003 ft | 396 kts | 257° |
| 2026-05-07 01:44 | 31.75108 | 124.63669 | 37996 ft | 396 kts | 257° |
| 2026-05-07 01:45 | 31.73735 | 124.57400 | 37997 ft | 396 kts | 257° |
| 2026-05-07 01:45 | 31.72358 | 124.51132 | 37997 ft | 396 kts | 257° |
| 2026-05-07 01:46 | 31.70979 | 124.44866 | 37992 ft | 396 kts | 257° |
| 2026-05-07 01:46 | 31.69598 | 124.38610 | 37995 ft | 396 kts | 257° |
| 2026-05-07 01:47 | 31.68221 | 124.32390 | 37993 ft | 396 kts | 257° |
| 2026-05-07 01:47 | 31.66833 | 124.26132 | 37993 ft | 396 kts | 257° |
| 2026-05-07 01:48 | 31.65443 | 124.19880 | 37989 ft | 396 kts | 257° |
| 2026-05-07 01:48 | 31.64049 | 124.13628 | 37992 ft | 396 kts | 256° |
| 2026-05-07 01:49 | 31.62662 | 124.07425 | 37989 ft | 396 kts | 256° |
| 2026-05-07 01:49 | 31.61264 | 124.01183 | 37990 ft | 396 kts | 256° |
| 2026-05-07 01:50 | 31.59882 | 123.94930 | 37986 ft | 396 kts | 257° |
| 2026-05-07 01:50 | 31.58522 | 123.88672 | 37987 ft | 396 kts | 257° |
| 2026-05-07 01:51 | 31.57156 | 123.82422 | 37986 ft | 396 kts | 257° |
| 2026-05-07 01:51 | 31.55783 | 123.76167 | 37985 ft | 396 kts | 257° |
| 2026-05-07 01:52 | 31.54406 | 123.69915 | 37987 ft | 396 kts | 257° |
| 2026-05-07 01:52 | 31.53033 | 123.63694 | 37985 ft | 396 kts | 257° |
| 2026-05-07 01:53 | 31.51650 | 123.57444 | 37980 ft | 396 kts | 257° |
| 2026-05-07 01:53 | 31.50262 | 123.51187 | 37980 ft | 396 kts | 257° |
| 2026-05-07 01:54 | 31.48977 | 123.44914 | 37980 ft | 396 kts | 259° |
| 2026-05-07 01:54 | 31.47821 | 123.38602 | 37978 ft | 396 kts | 259° |
| 2026-05-07 01:55 | 31.46647 | 123.32331 | 37976 ft | 396 kts | 259° |
| 2026-05-07 01:55 | 31.45448 | 123.26029 | 37971 ft | 396 kts | 258° |
| 2026-05-07 01:56 | 31.44245 | 123.19740 | 37974 ft | 396 kts | 258° |
| 2026-05-07 01:56 | 31.43040 | 123.13453 | 37977 ft | 396 kts | 258° |
| 2026-05-07 01:57 | 31.41839 | 123.07206 | 37974 ft | 395 kts | 258° |
| 2026-05-07 01:57 | 31.40627 | 123.00923 | 37967 ft | 395 kts | 258° |
| 2026-05-07 01:58 | 31.39414 | 122.94645 | 37967 ft | 395 kts | 258° |
| 2026-05-07 01:58 | 31.38198 | 122.88373 | 37969 ft | 395 kts | 258° |
| 2026-05-07 01:59 | 31.36979 | 122.82099 | 37965 ft | 395 kts | 258° |
| 2026-05-07 01:59 | 31.35759 | 122.75834 | 37962 ft | 395 kts | 258° |
| 2026-05-07 02:00 | 31.34565 | 122.69559 | 37956 ft | 395 kts | 258° |
| 2026-05-07 02:00 | 31.33381 | 122.63329 | 37958 ft | 395 kts | 258° |
| 2026-05-07 02:01 | 31.32183 | 122.57066 | 37954 ft | 395 kts | 258° |
| 2026-05-07 02:01 | 31.30979 | 122.50792 | 37953 ft | 395 kts | 258° |
| 2026-05-07 02:02 | 31.29773 | 122.44527 | 37951 ft | 395 kts | 258° |
| 2026-05-07 02:02 | 31.28584 | 122.38254 | 37950 ft | 395 kts | 259° |
| 2026-05-07 02:03 | 31.27407 | 122.31977 | 37951 ft | 395 kts | 259° |
| 2026-05-07 02:03 | 31.26230 | 122.25732 | 37950 ft | 396 kts | 259° |
| 2026-05-07 02:04 | 31.25038 | 122.19444 | 37950 ft | 396 kts | 259° |
| 2026-05-07 02:04 | 31.23847 | 122.13172 | 37948 ft | 396 kts | 259° |
| 2026-05-07 02:05 | 31.22843 | 122.07907 | 37948 ft | 397 kts | 259° |
| 2026-05-07 02:05 | 31.21650 | 122.01657 | 37946 ft | 397 kts | 259° |
| 2026-05-07 02:06 | 31.20442 | 121.95353 | 37947 ft | 397 kts | 259° |
| 2026-05-07 02:06 | 31.19233 | 121.89057 | 37947 ft | 397 kts | 259° |
| 2026-05-07 02:07 | 31.18020 | 121.82759 | 37945 ft | 398 kts | 259° |
| 2026-05-07 02:07 | 31.16610 | 121.73235 | 37948 ft | 397 kts | 264° |
| 2026-05-07 02:08 | 31.15929 | 121.66878 | 37947 ft | 397 kts | 264° |
| 2026-05-07 02:08 | 31.15232 | 121.60484 | 37947 ft | 397 kts | 264° |
| 2026-05-07 02:09 | 31.14533 | 121.54098 | 37944 ft | 396 kts | 264° |
| 2026-05-07 02:09 | 31.13833 | 121.47725 | 37946 ft | 396 kts | 264° |
| 2026-05-07 02:10 | 31.13129 | 121.41349 | 37946 ft | 396 kts | 264° |
| 2026-05-07 02:10 | 31.12356 | 121.34997 | 37945 ft | 396 kts | 260° |
| 2026-05-07 02:11 | 31.10968 | 121.28918 | 37939 ft | 397 kts | 255° |
| 2026-05-07 02:11 | 31.09356 | 121.22768 | 37935 ft | 396 kts | 256° |
| 2026-05-07 02:12 | 31.07754 | 121.16623 | 37934 ft | 396 kts | 256° |
| 2026-05-07 02:12 | 31.06196 | 121.10472 | 37925 ft | 395 kts | 257° |
| 2026-05-07 02:13 | 31.04712 | 121.04300 | 37921 ft | 395 kts | 257° |
| 2026-05-07 02:13 | 31.03216 | 120.98135 | 37917 ft | 395 kts | 257° |
| 2026-05-07 02:14 | 31.01711 | 120.91982 | 37915 ft | 395 kts | 257° |
| 2026-05-07 02:14 | 31.00200 | 120.85832 | 37916 ft | 395 kts | 257° |
| 2026-05-07 02:15 | 30.98695 | 120.79719 | 37917 ft | 394 kts | 257° |
| 2026-05-07 02:15 | 30.97179 | 120.73570 | 37924 ft | 394 kts | 257° |
| 2026-05-07 02:16 | 30.95676 | 120.67431 | 37922 ft | 394 kts | 257° |
| 2026-05-07 02:16 | 30.94172 | 120.61292 | 37923 ft | 394 kts | 257° |
| 2026-05-07 02:17 | 30.92663 | 120.55154 | 37927 ft | 394 kts | 257° |
| 2026-05-07 02:17 | 30.91051 | 120.49102 | 37924 ft | 396 kts | 250° |
| 2026-05-07 02:18 | 30.88197 | 120.43562 | 37922 ft | 405 kts | 236° |
| 2026-05-07 02:18 | 30.83976 | 120.39112 | 37920 ft | 418 kts | 220° |
| 2026-05-07 02:19 | 30.78939 | 120.35638 | 37918 ft | 420 kts | 218° |
| 2026-05-07 02:19 | 30.73900 | 120.32175 | 37919 ft | 420 kts | 218° |
| 2026-05-07 02:20 | 30.68867 | 120.28720 | 37918 ft | 420 kts | 218° |
| 2026-05-07 02:20 | 30.63830 | 120.25268 | 37924 ft | 420 kts | 218° |
| 2026-05-07 02:21 | 30.58793 | 120.21822 | 37921 ft | 420 kts | 218° |
| 2026-05-07 02:21 | 30.53751 | 120.18377 | 37918 ft | 420 kts | 218° |
| 2026-05-07 02:22 | 30.48743 | 120.14959 | 37920 ft | 420 kts | 218° |
| 2026-05-07 02:22 | 30.43702 | 120.11524 | 37916 ft | 420 kts | 218° |
| 2026-05-07 02:23 | 30.38663 | 120.08094 | 37922 ft | 420 kts | 218° |
| 2026-05-07 02:23 | 30.33612 | 120.04661 | 37925 ft | 420 kts | 218° |
| 2026-05-07 02:24 | 30.28569 | 120.01237 | 37923 ft | 420 kts | 219° |
| 2026-05-07 02:24 | 30.23549 | 119.97833 | 37928 ft | 420 kts | 219° |
| 2026-05-07 02:25 | 30.18500 | 119.94413 | 37933 ft | 420 kts | 219° |
| 2026-05-07 02:25 | 30.13451 | 119.90997 | 37934 ft | 421 kts | 219° |
| 2026-05-07 02:26 | 30.08401 | 119.87586 | 37940 ft | 420 kts | 219° |
| 2026-05-07 02:26 | 30.03353 | 119.84179 | 37939 ft | 420 kts | 219° |
| 2026-05-07 02:27 | 29.98305 | 119.80776 | 37939 ft | 420 kts | 219° |
| 2026-05-07 02:27 | 29.93262 | 119.77382 | 37934 ft | 418 kts | 219° |
| 2026-05-07 02:28 | 29.88246 | 119.74009 | 37938 ft | 419 kts | 219° |
| 2026-05-07 02:28 | 29.83220 | 119.70631 | 37940 ft | 419 kts | 219° |
| 2026-05-07 02:29 | 29.78285 | 119.67093 | 37941 ft | 413 kts | 224° |
| 2026-05-07 02:29 | 29.73961 | 119.62870 | 37956 ft | 404 kts | 233° |
| 2026-05-07 02:30 | 29.70233 | 119.58144 | 37942 ft | 400 kts | 236° |
| 2026-05-07 02:30 | 29.66538 | 119.53354 | 37956 ft | 401 kts | 236° |
| 2026-05-07 02:31 | 29.62824 | 119.48566 | 37955 ft | 400 kts | 236° |
| 2026-05-07 02:31 | 29.59099 | 119.43809 | 37958 ft | 401 kts | 235° |
| 2026-05-07 02:32 | 29.55356 | 119.39053 | 37959 ft | 401 kts | 235° |
| 2026-05-07 02:32 | 29.51613 | 119.34289 | 37959 ft | 402 kts | 235° |
| 2026-05-07 02:33 | 29.47864 | 119.29517 | 37960 ft | 402 kts | 235° |
| 2026-05-07 02:33 | 29.44124 | 119.24761 | 37960 ft | 401 kts | 235° |
| 2026-05-07 02:34 | 29.40403 | 119.20037 | 37963 ft | 402 kts | 235° |
| 2026-05-07 02:34 | 29.36648 | 119.15273 | 37967 ft | 403 kts | 235° |
| 2026-05-07 02:35 | 29.32902 | 119.10538 | 37961 ft | 399 kts | 235° |
| 2026-05-07 02:35 | 29.29164 | 119.05817 | 37962 ft | 401 kts | 235° |
| 2026-05-07 02:36 | 29.25418 | 119.01093 | 37962 ft | 400 kts | 235° |
| 2026-05-07 02:36 | 29.21682 | 118.96392 | 37962 ft | 399 kts | 235° |
| 2026-05-07 02:37 | 29.17926 | 118.91669 | 37966 ft | 401 kts | 235° |
| 2026-05-07 02:37 | 29.14179 | 118.86968 | 37959 ft | 399 kts | 235° |
| 2026-05-07 02:38 | 29.10427 | 118.82264 | 37960 ft | 399 kts | 235° |
| 2026-05-07 02:38 | 29.06681 | 118.77572 | 37965 ft | 400 kts | 235° |
| 2026-05-07 02:39 | 29.02932 | 118.72883 | 37962 ft | 400 kts | 235° |
| 2026-05-07 02:39 | 28.99176 | 118.68190 | 37962 ft | 400 kts | 235° |
| 2026-05-07 02:40 | 28.95416 | 118.63498 | 37963 ft | 400 kts | 235° |
| 2026-05-07 02:40 | 28.91686 | 118.58848 | 37959 ft | 400 kts | 235° |
| 2026-05-07 02:41 | 28.87920 | 118.54158 | 37959 ft | 401 kts | 235° |
| 2026-05-07 02:41 | 28.84148 | 118.49467 | 37956 ft | 401 kts | 235° |
| 2026-05-07 02:42 | 28.80366 | 118.44774 | 37961 ft | 402 kts | 235° |
| 2026-05-07 02:42 | 28.76584 | 118.40082 | 37964 ft | 402 kts | 235° |
| 2026-05-07 02:43 | 28.72796 | 118.35385 | 37959 ft | 402 kts | 235° |
| 2026-05-07 02:43 | 28.69030 | 118.30721 | 37960 ft | 402 kts | 235° |
| 2026-05-07 02:44 | 28.65233 | 118.26026 | 37960 ft | 402 kts | 235° |
| 2026-05-07 02:44 | 28.61436 | 118.21336 | 37960 ft | 403 kts | 235° |
| 2026-05-07 02:45 | 28.57633 | 118.16644 | 37958 ft | 403 kts | 235° |
| 2026-05-07 02:45 | 28.53826 | 118.11953 | 37958 ft | 403 kts | 235° |
| 2026-05-07 02:46 | 28.50019 | 118.07268 | 37951 ft | 403 kts | 235° |
| 2026-05-07 02:46 | 28.46206 | 118.02581 | 37951 ft | 403 kts | 235° |
| 2026-05-07 02:47 | 28.42423 | 117.97933 | 37948 ft | 403 kts | 235° |
| 2026-05-07 02:47 | 28.38567 | 117.93290 | 37950 ft | 404 kts | 234° |
| 2026-05-07 02:48 | 28.34651 | 117.88696 | 37948 ft | 405 kts | 234° |
| 2026-05-07 02:48 | 28.30743 | 117.84098 | 37951 ft | 405 kts | 234° |
| 2026-05-07 02:49 | 28.26841 | 117.79500 | 37954 ft | 405 kts | 234° |
| 2026-05-07 02:49 | 28.22936 | 117.74902 | 37955 ft | 404 kts | 234° |
| 2026-05-07 02:50 | 28.19031 | 117.70307 | 37949 ft | 405 kts | 234° |
| 2026-05-07 02:50 | 28.15117 | 117.65708 | 37948 ft | 405 kts | 234° |
| 2026-05-07 02:51 | 28.11223 | 117.61136 | 37950 ft | 406 kts | 234° |
| 2026-05-07 02:51 | 28.07296 | 117.56532 | 37957 ft | 407 kts | 234° |
| 2026-05-07 02:52 | 28.03349 | 117.51910 | 37967 ft | 408 kts | 234° |
| 2026-05-07 02:52 | 27.99386 | 117.47271 | 37966 ft | 409 kts | 234° |
| 2026-05-07 02:53 | 27.95435 | 117.42656 | 37970 ft | 408 kts | 234° |
| 2026-05-07 02:53 | 27.91490 | 117.38048 | 37973 ft | 408 kts | 234° |
| 2026-05-07 02:54 | 27.88189 | 117.34196 | 37964 ft | 411 kts | 234° |
| 2026-05-07 02:54 | 27.84207 | 117.29558 | 37967 ft | 412 kts | 234° |
| 2026-05-07 02:55 | 27.80228 | 117.24927 | 37959 ft | 411 kts | 234° |
| 2026-05-07 02:55 | 27.75594 | 117.19539 | 37983 ft | 410 kts | 234° |
| 2026-05-07 02:56 | 27.72255 | 117.15665 | 37960 ft | 412 kts | 234° |
| 2026-05-07 02:56 | 27.68253 | 117.11021 | 37962 ft | 412 kts | 234° |
| 2026-05-07 02:57 | 27.64278 | 117.06413 | 37967 ft | 414 kts | 234° |
| 2026-05-07 02:57 | 27.60256 | 117.01756 | 37966 ft | 416 kts | 234° |
| 2026-05-07 02:58 | 27.56223 | 116.97094 | 37954 ft | 414 kts | 234° |
| 2026-05-07 02:58 | 27.52190 | 116.92435 | 37952 ft | 415 kts | 233° |
| 2026-05-07 02:59 | 27.48179 | 116.87760 | 37950 ft | 415 kts | 234° |
| 2026-05-07 02:59 | 27.44186 | 116.83072 | 37953 ft | 415 kts | 234° |
| 2026-05-07 03:00 | 27.40179 | 116.78382 | 37954 ft | 415 kts | 234° |
| 2026-05-07 03:00 | 27.36172 | 116.73701 | 37943 ft | 415 kts | 234° |
| 2026-05-07 03:01 | 27.32158 | 116.69020 | 37939 ft | 416 kts | 234° |
| 2026-05-07 03:01 | 27.28144 | 116.64343 | 37941 ft | 416 kts | 234° |
| 2026-05-07 03:02 | 27.24145 | 116.59689 | 37942 ft | 416 kts | 233° |
| 2026-05-07 03:02 | 27.20119 | 116.55005 | 37945 ft | 417 kts | 234° |
| 2026-05-07 03:03 | 27.16174 | 116.50235 | 37948 ft | 416 kts | 235° |
| 2026-05-07 03:03 | 27.12251 | 116.45448 | 37947 ft | 417 kts | 235° |
| 2026-05-07 03:04 | 27.08307 | 116.40668 | 37957 ft | 417 kts | 234° |
| 2026-05-07 03:04 | 27.04348 | 116.35884 | 37962 ft | 418 kts | 234° |
| 2026-05-07 03:05 | 27.00387 | 116.31104 | 37957 ft | 418 kts | 234° |
| 2026-05-07 03:05 | 26.96421 | 116.26323 | 37956 ft | 418 kts | 234° |
| 2026-05-07 03:06 | 26.92477 | 116.21573 | 37951 ft | 418 kts | 234° |
| 2026-05-07 03:06 | 26.88532 | 116.16792 | 37948 ft | 418 kts | 235° |
| 2026-05-07 03:07 | 26.84599 | 116.11989 | 37956 ft | 419 kts | 234° |
| 2026-05-07 03:07 | 26.80653 | 116.07185 | 37961 ft | 419 kts | 234° |
| 2026-05-07 03:08 | 26.76703 | 116.02384 | 37968 ft | 419 kts | 234° |
| 2026-05-07 03:08 | 26.72747 | 115.97584 | 37965 ft | 419 kts | 234° |
| 2026-05-07 03:09 | 26.68787 | 115.92783 | 37975 ft | 420 kts | 234° |
| 2026-05-07 03:09 | 26.64826 | 115.87987 | 37976 ft | 420 kts | 234° |
| 2026-05-07 03:10 | 26.60864 | 115.83195 | 37965 ft | 419 kts | 234° |
| 2026-05-07 03:10 | 26.56914 | 115.78425 | 37961 ft | 417 kts | 234° |
| 2026-05-07 03:11 | 26.52955 | 115.73644 | 37959 ft | 419 kts | 234° |
| 2026-05-07 03:11 | 26.48994 | 115.68867 | 37964 ft | 419 kts | 234° |
| 2026-05-07 03:12 | 26.45030 | 115.64097 | 37967 ft | 419 kts | 234° |
| 2026-05-07 03:12 | 26.41098 | 115.59368 | 37957 ft | 418 kts | 234° |
| 2026-05-07 03:13 | 26.37143 | 115.54616 | 37944 ft | 418 kts | 234° |
| 2026-05-07 03:13 | 26.33187 | 115.49867 | 37944 ft | 418 kts | 233° |
| 2026-05-07 03:14 | 26.29228 | 115.45120 | 37939 ft | 418 kts | 233° |
| 2026-05-07 03:15 | 26.23281 | 115.38000 | 37946 ft | 419 kts | 233° |
| 2026-05-07 03:15 | 26.19307 | 115.33247 | 37963 ft | 419 kts | 233° |
| 2026-05-07 03:16 | 26.15323 | 115.28488 | 37962 ft | 420 kts | 233° |
| 2026-05-07 03:16 | 26.11363 | 115.23763 | 37962 ft | 420 kts | 233° |
| 2026-05-07 03:17 | 26.07379 | 115.19016 | 37955 ft | 418 kts | 233° |
| 2026-05-07 03:17 | 26.03412 | 115.14293 | 37955 ft | 417 kts | 233° |
| 2026-05-07 03:18 | 25.99444 | 115.09572 | 37955 ft | 417 kts | 233° |
| 2026-05-07 03:18 | 25.95480 | 115.04861 | 37956 ft | 417 kts | 233° |
| 2026-05-07 03:19 | 25.91518 | 115.00160 | 37958 ft | 416 kts | 233° |
| 2026-05-07 03:19 | 25.87596 | 114.95509 | 37949 ft | 415 kts | 233° |
| 2026-05-07 03:20 | 25.83543 | 114.90932 | 37944 ft | 420 kts | 226° |
| 2026-05-07 03:20 | 25.78534 | 114.87418 | 37943 ft | 434 kts | 211° |
| 2026-05-07 03:21 | 25.72662 | 114.85456 | 37934 ft | 446 kts | 200° |
| 2026-05-07 03:21 | 25.66610 | 114.83969 | 37934 ft | 446 kts | 200° |
| 2026-05-07 03:22 | 25.60590 | 114.82473 | 37933 ft | 446 kts | 200° |
| 2026-05-07 03:22 | 25.54523 | 114.80967 | 37941 ft | 447 kts | 200° |
| 2026-05-07 03:23 | 25.48450 | 114.79463 | 37946 ft | 448 kts | 200° |
| 2026-05-07 03:23 | 25.42363 | 114.77957 | 37951 ft | 448 kts | 200° |
| 2026-05-07 03:24 | 25.36270 | 114.76450 | 37951 ft | 449 kts | 200° |
| 2026-05-07 03:24 | 25.30157 | 114.74941 | 37956 ft | 450 kts | 200° |
| 2026-05-07 03:25 | 25.24029 | 114.73429 | 37958 ft | 451 kts | 199° |
| 2026-05-07 03:25 | 25.17933 | 114.71927 | 37964 ft | 452 kts | 199° |
| 2026-05-07 03:26 | 25.11783 | 114.70413 | 37970 ft | 453 kts | 199° |
| 2026-05-07 03:26 | 25.05632 | 114.68902 | 37963 ft | 452 kts | 199° |
| 2026-05-07 03:27 | 24.99492 | 114.67394 | 37966 ft | 452 kts | 199° |
| 2026-05-07 03:27 | 24.93337 | 114.65883 | 37970 ft | 453 kts | 199° |
| 2026-05-07 03:28 | 24.87180 | 114.64373 | 37974 ft | 454 kts | 199° |
| 2026-05-07 03:28 | 24.81022 | 114.62860 | 37975 ft | 453 kts | 199° |
| 2026-05-07 03:29 | 24.74861 | 114.61341 | 37974 ft | 453 kts | 200° |
| 2026-05-07 03:29 | 24.68927 | 114.59175 | 37973 ft | 445 kts | 210° |
| 2026-05-07 03:30 | 24.63499 | 114.56046 | 37977 ft | 439 kts | 217° |
| 2026-05-07 03:30 | 24.58213 | 114.52684 | 37975 ft | 440 kts | 216° |
| 2026-05-07 03:31 | 24.52892 | 114.49324 | 37975 ft | 441 kts | 216° |
| 2026-05-07 03:31 | 24.47602 | 114.45992 | 37971 ft | 441 kts | 216° |
| 2026-05-07 03:32 | 24.42285 | 114.42642 | 37970 ft | 441 kts | 216° |
| 2026-05-07 03:32 | 24.36968 | 114.39302 | 37961 ft | 440 kts | 216° |
| 2026-05-07 03:33 | 24.31638 | 114.35962 | 37960 ft | 441 kts | 216° |
| 2026-05-07 03:33 | 24.26286 | 114.32608 | 37979 ft | 445 kts | 216° |
| 2026-05-07 03:34 | 24.20890 | 114.29234 | 37976 ft | 446 kts | 216° |
| 2026-05-07 03:34 | 24.15504 | 114.25867 | 37978 ft | 444 kts | 216° |
| 2026-05-07 03:35 | 24.10390 | 114.22133 | 37981 ft | 438 kts | 227° |
| 2026-05-07 03:35 | 24.06421 | 114.17194 | 37980 ft | 428 kts | 242° |
| 2026-05-07 03:36 | 24.03585 | 114.11560 | 37978 ft | 425 kts | 247° |
| 2026-05-07 03:36 | 24.00824 | 114.05838 | 37948 ft | 426 kts | 247° |
| 2026-05-07 03:36 | 23.99438 | 114.02976 | 37715 ft | 426 kts | 247° |
| 2026-05-07 03:37 | 23.98049 | 114.00110 | 37451 ft | 427 kts | 247° |
| 2026-05-07 03:37 | 23.96657 | 113.97236 | 37195 ft | 429 kts | 246° |
| 2026-05-07 03:37 | 23.95259 | 113.94351 | 36867 ft | 431 kts | 246° |
| 2026-05-07 03:37 | 23.93847 | 113.91441 | 36167 ft | 436 kts | 246° |
| 2026-05-07 03:38 | 23.92416 | 113.88490 | 35294 ft | 442 kts | 246° |
| 2026-05-07 03:38 | 23.90974 | 113.85522 | 34495 ft | 445 kts | 246° |
| 2026-05-07 03:38 | 23.89523 | 113.82537 | 33725 ft | 446 kts | 245° |
| 2026-05-07 03:38 | 23.88062 | 113.79533 | 32945 ft | 447 kts | 245° |
| 2026-05-07 03:39 | 23.86606 | 113.76544 | 32191 ft | 446 kts | 245° |
| 2026-05-07 03:39 | 23.85144 | 113.73540 | 31322 ft | 448 kts | 245° |
| 2026-05-07 03:39 | 23.83676 | 113.70526 | 30484 ft | 449 kts | 245° |
| 2026-05-07 03:39 | 23.82211 | 113.67521 | 29884 ft | 445 kts | 244° |
| 2026-05-07 03:40 | 23.80614 | 113.64657 | 29280 ft | 441 kts | 237° |
| 2026-05-07 03:40 | 23.78626 | 113.62117 | 28574 ft | 441 kts | 227° |
| 2026-05-07 03:40 | 23.76282 | 113.59976 | 28025 ft | 438 kts | 219° |
| 2026-05-07 03:40 | 23.73713 | 113.58182 | 27348 ft | 437 kts | 215° |
| 2026-05-07 03:41 | 23.71149 | 113.56449 | 26742 ft | 432 kts | 215° |
| 2026-05-07 03:41 | 23.68597 | 113.54719 | 26100 ft | 429 kts | 215° |
| 2026-05-07 03:41 | 23.66075 | 113.53007 | 25447 ft | 427 kts | 215° |
| 2026-05-07 03:41 | 23.63564 | 113.51302 | 24811 ft | 424 kts | 215° |
| 2026-05-07 03:42 | 23.61223 | 113.49401 | 24188 ft | 418 kts | 226° |
| 2026-05-07 03:42 | 23.59362 | 113.47014 | 23569 ft | 412 kts | 238° |
| 2026-05-07 03:42 | 23.58060 | 113.44265 | 22943 ft | 404 kts | 250° |
| 2026-05-07 03:42 | 23.57138 | 113.41392 | 22333 ft | 399 kts | 252° |
| 2026-05-07 03:43 | 23.56538 | 113.39512 | 21952 ft | 396 kts | 252° |
| 2026-05-07 03:43 | 23.55635 | 113.36696 | 21363 ft | 391 kts | 251° |
| 2026-05-07 03:43 | 23.54740 | 113.33912 | 20774 ft | 388 kts | 251° |
| 2026-05-07 03:43 | 23.53561 | 113.30250 | 19971 ft | 384 kts | 251° |
| 2026-05-07 03:44 | 23.52678 | 113.27509 | 19350 ft | 382 kts | 251° |
| 2026-05-07 03:44 | 23.51686 | 113.24835 | 18756 ft | 381 kts | 242° |
| 2026-05-07 03:44 | 23.50708 | 113.23257 | 18408 ft | 379 kts | 232° |
| 2026-05-07 03:44 | 23.48774 | 113.21308 | 17777 ft | 379 kts | 216° |
| 2026-05-07 03:45 | 23.46417 | 113.20022 | 17191 ft | 379 kts | 201° |
| 2026-05-07 03:45 | 23.43850 | 113.19385 | 16617 ft | 378 kts | 194° |
| 2026-05-07 03:45 | 23.41279 | 113.18850 | 16060 ft | 374 kts | 193° |
| 2026-05-07 03:45 | 23.38730 | 113.18319 | 15449 ft | 373 kts | 194° |
| 2026-05-07 03:46 | 23.36202 | 113.17790 | 15118 ft | 363 kts | 194° |
| 2026-05-07 03:46 | 23.33776 | 113.17283 | 14976 ft | 348 kts | 194° |
| 2026-05-07 03:46 | 23.31445 | 113.16795 | 14859 ft | 334 kts | 194° |
| 2026-05-07 03:46 | 23.29206 | 113.16326 | 14751 ft | 321 kts | 194° |
| 2026-05-07 03:47 | 23.27058 | 113.15874 | 14642 ft | 308 kts | 194° |
| 2026-05-07 03:47 | 23.24988 | 113.15439 | 14549 ft | 296 kts | 194° |
| 2026-05-07 03:47 | 23.23029 | 113.15027 | 14459 ft | 284 kts | 194° |
| 2026-05-07 03:47 | 23.21131 | 113.14628 | 14365 ft | 272 kts | 194° |
| 2026-05-07 03:48 | 23.19311 | 113.14243 | 14251 ft | 261 kts | 195° |
| 2026-05-07 03:48 | 23.17555 | 113.13802 | 13980 ft | 257 kts | 198° |
| 2026-05-07 03:48 | 23.15826 | 113.13319 | 13605 ft | 257 kts | 198° |
| 2026-05-07 03:48 | 23.14086 | 113.12826 | 13165 ft | 260 kts | 198° |
| 2026-05-07 03:49 | 23.12321 | 113.12336 | 12713 ft | 263 kts | 198° |
| 2026-05-07 03:49 | 23.10539 | 113.11849 | 12272 ft | 265 kts | 197° |
| 2026-05-07 03:49 | 23.08739 | 113.11363 | 11833 ft | 268 kts | 197° |
| 2026-05-07 03:49 | 23.06924 | 113.10876 | 11408 ft | 270 kts | 197° |
| 2026-05-07 03:50 | 23.05095 | 113.10388 | 10977 ft | 271 kts | 197° |
| 2026-05-07 03:50 | 23.03257 | 113.09896 | 10553 ft | 273 kts | 197° |
| 2026-05-07 03:50 | 23.01405 | 113.09400 | 10148 ft | 274 kts | 197° |
| 2026-05-07 03:50 | 22.99549 | 113.08904 | 9728 ft | 275 kts | 197° |
| 2026-05-07 03:51 | 22.97655 | 113.08563 | 9264 ft | 279 kts | 181° |
| 2026-05-07 03:51 | 22.95764 | 113.09089 | 8824 ft | 286 kts | 155° |
| 2026-05-07 03:51 | 22.94241 | 113.10490 | 8390 ft | 293 kts | 128° |
| 2026-05-07 03:51 | 22.93402 | 113.12504 | 7952 ft | 298 kts | 103° |
| 2026-05-07 03:52 | 22.93188 | 113.14745 | 7516 ft | 300 kts | 93° |
| 2026-05-07 03:52 | 22.93516 | 113.16967 | 7096 ft | 301 kts | 68° |
| 2026-05-07 03:52 | 22.94661 | 113.18809 | 6750 ft | 297 kts | 40° |
| 2026-05-07 03:52 | 22.96382 | 113.19862 | 6810 ft | 275 kts | 14° |
| 2026-05-07 03:53 | 22.98167 | 113.20347 | 6862 ft | 254 kts | 11° |
| 2026-05-07 03:53 | 22.99826 | 113.20782 | 6863 ft | 238 kts | 11° |
| 2026-05-07 03:53 | 23.01402 | 113.21196 | 6813 ft | 229 kts | 11° |
| 2026-05-07 03:53 | 23.02923 | 113.21599 | 6780 ft | 218 kts | 11° |
| 2026-05-07 03:54 | 23.04341 | 113.21981 | 6708 ft | 202 kts | 11° |
| 2026-05-07 03:54 | 23.05660 | 113.22337 | 6607 ft | 189 kts | 11° |
| 2026-05-07 03:54 | 23.06899 | 113.22671 | 6523 ft | 178 kts | 11° |
| 2026-05-07 03:54 | 23.08063 | 113.22984 | 6434 ft | 169 kts | 11° |
| 2026-05-07 03:55 | 23.09190 | 113.23286 | 6238 ft | 166 kts | 11° |
| 2026-05-07 03:55 | 23.10315 | 113.23584 | 6006 ft | 166 kts | 12° |
| 2026-05-07 03:55 | 23.11439 | 113.23886 | 5766 ft | 166 kts | 12° |
| 2026-05-07 03:55 | 23.12557 | 113.24188 | 5654 ft | 167 kts | 12° |
| 2026-05-07 03:56 | 23.13693 | 113.24494 | 5420 ft | 170 kts | 12° |
| 2026-05-07 03:56 | 23.14880 | 113.24812 | 4996 ft | 182 kts | 12° |
| 2026-05-07 03:56 | 23.16150 | 113.25151 | 4523 ft | 194 kts | 13° |
| 2026-05-07 03:56 | 23.17471 | 113.25505 | 4042 ft | 202 kts | 13° |
| 2026-05-07 03:57 | 23.18832 | 113.25873 | 3542 ft | 200 kts | 13° |
| 2026-05-07 03:57 | 23.20159 | 113.26229 | 3133 ft | 191 kts | 14° |
| 2026-05-07 03:57 | 23.21385 | 113.26556 | 2982 ft | 173 kts | 14° |
| 2026-05-07 03:57 | 23.22481 | 113.26854 | 2828 ft | 154 kts | 14° |
| 2026-05-07 03:58 | 23.23488 | 113.27126 | 2651 ft | 144 kts | 14° |
| 2026-05-07 03:58 | 23.24457 | 113.27388 | 2465 ft | 145 kts | 15° |
| 2026-05-07 03:58 | 23.25433 | 113.27652 | 2307 ft | 145 kts | 15° |
| 2026-05-07 03:58 | 23.26403 | 113.27915 | 2111 ft | 143 kts | 15° |
| 2026-05-07 03:59 | 23.27375 | 113.28178 | 1939 ft | 144 kts | 15° |
| 2026-05-07 03:59 | 23.28347 | 113.28441 | 1752 ft | 143 kts | 14° |
| 2026-05-07 03:59 | 23.29308 | 113.28702 | 1577 ft | 143 kts | 14° |
| 2026-05-07 03:59 | 23.30249 | 113.28956 | 1380 ft | 139 kts | 15° |
| 2026-05-07 04:00 | 23.31203 | 113.29215 | 1224 ft | 141 kts | 15° |
| 2026-05-07 04:00 | 23.32144 | 113.29470 | 1025 ft | 141 kts | 15° |
| 2026-05-07 04:00 | 23.32799 | 113.29646 | 918 ft | 145 kts | 15° |
| 2026-05-07 04:00 | 23.33070 | 113.29719 | 867 ft | 145 kts | 15° |
| 2026-05-07 04:01 | 23.33939 | 113.29956 | 694 ft | 143 kts | 14° |
| 2026-05-07 04:01 | 23.34910 | 113.30218 | 484 ft | 142 kts | 14° |
| 2026-05-07 04:01 | 23.35828 | 113.30469 | 304 ft | 136 kts | 15° |
| 2026-05-07 04:01 | 23.36758 | 113.30720 | 133 ft | 137 kts | 14° |
| 2026-05-07 04:02 | 23.37618 | 113.30951 | 50 ft | 99 kts | 14° |
| 2026-05-07 04:02 | 23.38019 | 113.31060 | 50 ft | 38 kts | 14° |
| 2026-05-07 04:02 | 23.38280 | 113.31130 | 52 ft | 37 kts | 13° |
| 2026-05-07 04:02 | 23.38415 | 113.31166 | 50 ft | 12 kts | 14° |
| 2026-05-07 04:03 | 23.38511 | 113.31193 | 48 ft | 16 kts | 14° |
| 2026-05-07 04:03 | 23.38628 | 113.31236 | 49 ft | 19 kts | 38° |
| 2026-05-07 04:03 | 23.38732 | 113.31339 | 52 ft | 22 kts | 42° |
| 2026-05-07 04:03 | 23.38826 | 113.31459 | 53 ft | 13 kts | 95° |
| 2026-05-07 04:04 | 23.38774 | 113.31467 | 51 ft | 10 kts | 195° |
| 2026-05-07 04:04 | 23.38698 | 113.31446 | 51 ft | 13 kts | 194° |
| 2026-05-07 04:04 | 23.38602 | 113.31418 | 52 ft | 16 kts | 195° |
| 2026-05-07 04:04 | 23.38487 | 113.31386 | 52 ft | 18 kts | 194° |
| 2026-05-07 04:05 | 23.38353 | 113.31350 | 53 ft | 21 kts | 194° |
| 2026-05-07 04:05 | 23.38206 | 113.31312 | 51 ft | 20 kts | 192° |
| 2026-05-07 04:05 | 23.38139 | 113.31296 | 50 ft | 6 kts | 192° |
| 2026-05-07 04:05 | 23.38083 | 113.31282 | 52 ft | 10 kts | 193° |
| 2026-05-07 04:06 | 23.38001 | 113.31262 | 52 ft | 14 kts | 193° |
| 2026-05-07 04:06 | 23.37900 | 113.31232 | 51 ft | 17 kts | 197° |
| 2026-05-07 04:06 | 23.37780 | 113.31196 | 50 ft | 19 kts | 195° |
| 2026-05-07 04:06 | 23.37641 | 113.31155 | 53 ft | 22 kts | 195° |
| 2026-05-07 04:07 | 23.37489 | 113.31114 | 51 ft | 18 kts | 194° |
| 2026-05-07 04:07 | 23.37458 | 113.31050 | 51 ft | 7 kts | 290° |
| 2026-05-07 04:07 | 23.37473 | 113.30987 | 54 ft | 10 kts | 285° |
| 2026-05-07 04:07 | 23.37494 | 113.30901 | 55 ft | 13 kts | 284° |
| 2026-05-07 04:08 | 23.37516 | 113.30790 | 51 ft | 17 kts | 283° |
| 2026-05-07 04:08 | 23.37547 | 113.30655 | 53 ft | 20 kts | 287° |
| 2026-05-07 04:08 | 23.37587 | 113.30502 | 53 ft | 22 kts | 283° |
| 2026-05-07 04:08 | 23.37606 | 113.30417 | 54 ft | 10 kts | 285° |
| 2026-05-07 04:09 | 23.37627 | 113.30325 | 48 ft | 15 kts | 283° |
| 2026-05-07 04:09 | 23.37681 | 113.30227 | 54 ft | 16 kts | 332° |
| 2026-05-07 04:09 | 23.37794 | 113.30190 | 54 ft | 17 kts | 19° |
| 2026-05-07 04:09 | 23.37916 | 113.30226 | 50 ft | 20 kts | 13° |
| 2026-05-07 04:10 | 23.38060 | 113.30263 | 49 ft | 23 kts | 13° |
| 2026-05-07 04:10 | 23.38222 | 113.30306 | 52 ft | 25 kts | 13° |
| 2026-05-07 04:10 | 23.38392 | 113.30354 | 49 ft | 24 kts | 14° |
| 2026-05-07 04:10 | 23.38528 | 113.30389 | 49 ft | 13 kts | 2° |
| 2026-05-07 04:11 | 23.38611 | 113.30349 | 54 ft | 13 kts | 334° |
| 2026-05-07 04:11 | 23.38679 | 113.30314 | 54 ft | 8 kts | 335° |
| 2026-05-07 04:11 | 23.38732 | 113.30288 | 54 ft | 0 kts | 335° |
| 2026-05-07 04:11 | 23.38736 | 113.30287 | 50 ft | 0 kts | 335° |